createdAt,value
2018-12-11T00:02:23.528Z,1.42
2018-12-11T00:04:52.312Z,1.67
2018-12-11T00:07:21.025Z,1.75
2018-12-11T00:09:49.509Z,1.90
2018-12-11T00:12:18.112Z,1.85
2018-12-11T00:14:53.064Z,2.05
2018-12-11T00:17:22.593Z,2.05
2018-12-11T00:19:51.318Z,2.35
2018-12-11T00:22:26.340Z,2.55
2018-12-11T00:25:01.463Z,1.30
2018-12-11T00:27:30.201Z,1.90
2018-12-11T00:29:59.006Z,2.12
2018-12-11T00:32:33.988Z,1.67
2018-12-11T00:35:02.764Z,1.62
2018-12-11T00:37:31.275Z,2.02
2018-12-11T00:40:01.941Z,1.70
2018-12-11T00:42:36.519Z,2.37
2018-12-11T00:45:06.164Z,2.08
2018-12-11T00:47:34.864Z,0.98
2018-12-11T00:50:03.865Z,1.95
2018-12-11T00:52:32.636Z,1.98
2018-12-11T00:55:07.712Z,2.77
2018-12-11T00:57:36.527Z,1.82
2018-12-11T01:00:06.900Z,2.33
2018-12-11T01:02:35.731Z,1.93
2018-12-11T01:05:10.799Z,1.67
2018-12-11T01:07:39.363Z,1.70
2018-12-11T01:10:14.153Z,2.25
2018-12-11T01:12:42.824Z,1.85
2018-12-11T01:15:11.367Z,2.50
2018-12-11T01:17:39.739Z,2.95
2018-12-11T01:20:08.626Z,2.42
2018-12-11T01:22:37.028Z,1.95
2018-12-11T01:25:05.875Z,1.90
2018-12-11T01:27:34.572Z,2.35
2018-12-11T01:30:03.409Z,1.35
2018-12-11T01:32:32.303Z,2.72
2018-12-11T01:35:01.051Z,1.77
2018-12-11T01:37:31.442Z,2.30
2018-12-11T01:40:00.104Z,2.45
2018-12-11T01:42:28.929Z,2.67
2018-12-11T01:44:57.597Z,1.70
2018-12-11T01:47:26.054Z,2.30
2018-12-11T01:49:54.799Z,2.00
2018-12-11T01:52:23.481Z,1.92
2018-12-11T01:54:51.939Z,2.08
2018-12-11T01:57:20.536Z,2.12
2018-12-11T01:59:49.224Z,1.42
2018-12-11T02:02:23.866Z,2.77
2018-12-11T02:04:52.557Z,2.20
2018-12-11T02:07:27.171Z,2.25
2018-12-11T02:09:55.764Z,2.25
2018-12-11T02:12:24.531Z,1.80
2018-12-11T02:14:52.983Z,2.12
2018-12-11T02:17:21.414Z,2.33
2018-12-11T02:19:49.948Z,2.00
2018-12-11T02:22:18.635Z,3.58
2018-12-11T02:24:47.316Z,2.67
2018-12-11T02:27:16.059Z,1.70
2018-12-11T02:29:44.523Z,1.95
2018-12-11T02:32:13.129Z,2.65
2018-12-11T02:34:41.924Z,1.80
2018-12-11T02:37:10.792Z,1.87
2018-12-11T02:39:40.275Z,2.22
2018-12-11T02:42:08.956Z,1.52
2018-12-11T02:44:37.429Z,1.42
2018-12-11T02:47:05.958Z,1.65
2018-12-11T02:49:34.494Z,1.65
2018-12-11T02:52:03.237Z,2.00
2018-12-11T02:54:33.005Z,2.30
2018-12-11T02:57:01.688Z,1.80
2018-12-11T02:59:30.384Z,2.60
2018-12-11T03:02:00.010Z,2.42
2018-12-11T03:04:35.410Z,1.85
2018-12-11T03:07:04.038Z,2.50
2018-12-11T03:09:32.703Z,2.40
2018-12-11T03:12:01.335Z,2.08
2018-12-11T03:14:30.010Z,2.80
2018-12-11T03:16:58.739Z,1.98
2018-12-11T03:19:27.443Z,1.62
2018-12-11T03:21:56.984Z,2.67
2018-12-11T03:24:26.207Z,1.80
2018-12-11T03:26:54.807Z,2.55
2018-12-11T03:29:23.513Z,2.25
2018-12-11T03:31:52.345Z,2.42
2018-12-11T03:34:21.076Z,2.25
2018-12-11T03:36:56.025Z,2.05
2018-12-11T03:39:24.756Z,2.20
2018-12-11T03:41:53.436Z,2.60
2018-12-11T03:44:22.034Z,2.55
2018-12-11T03:46:51.431Z,1.80
2018-12-11T03:49:20.112Z,2.70
2018-12-11T03:51:48.736Z,2.47
2018-12-11T03:54:18.260Z,2.30
2018-12-11T03:56:53.239Z,1.92
2018-12-11T03:59:21.971Z,2.00
2018-12-11T04:01:50.651Z,1.75
2018-12-11T04:04:19.344Z,1.85
2018-12-11T04:06:54.150Z,1.72
2018-12-11T04:09:22.664Z,1.45
2018-12-11T04:11:51.347Z,1.70
2018-12-11T04:14:20.491Z,2.77
2018-12-11T04:16:51.041Z,1.98
2018-12-11T04:19:19.503Z,1.75
2018-12-11T04:21:48.887Z,2.25
2018-12-11T04:24:17.577Z,2.00
2018-12-11T04:26:52.120Z,2.95
2018-12-11T04:29:20.791Z,2.40
2018-12-11T04:31:49.485Z,1.45
2018-12-11T04:34:18.172Z,1.70
2018-12-11T04:36:53.019Z,1.77
2018-12-11T04:39:22.508Z,1.30
2018-12-11T04:41:51.247Z,2.22
2018-12-11T04:44:26.183Z,2.08
2018-12-11T04:46:54.964Z,2.58
2018-12-11T04:49:23.664Z,2.70
2018-12-11T04:51:58.676Z,1.65
2018-12-11T04:54:33.641Z,2.62
2018-12-11T04:57:02.562Z,1.50
2018-12-11T04:59:31.191Z,1.57
2018-12-11T05:01:59.653Z,1.57
2018-12-11T05:04:28.294Z,2.10
2018-12-11T05:06:57.024Z,1.75
2018-12-11T05:09:25.604Z,2.08
2018-12-11T05:12:00.560Z,1.90
2018-12-11T05:14:29.095Z,2.37
2018-12-11T05:16:57.456Z,2.47
2018-12-11T05:19:26.061Z,1.90
2018-12-11T05:21:54.732Z,2.08
2018-12-11T05:24:29.528Z,2.27
2018-12-11T05:26:58.734Z,2.00
2018-12-11T05:29:27.419Z,2.35
2018-12-11T05:31:56.111Z,3.02
2018-12-11T05:34:24.611Z,2.08
2018-12-11T05:36:53.059Z,2.87
2018-12-11T05:39:21.598Z,2.85
2018-12-11T05:41:50.144Z,2.60
2018-12-11T05:44:24.946Z,2.60
2018-12-11T05:46:53.720Z,2.45
2018-12-11T05:49:22.210Z,1.92
2018-12-11T05:51:51.808Z,1.92
2018-12-11T05:54:26.428Z,2.30
2018-12-11T05:56:55.029Z,2.37
2018-12-11T05:59:25.658Z,2.00
2018-12-11T06:01:54.471Z,1.77
2018-12-11T06:04:22.944Z,2.62
2018-12-11T06:06:51.318Z,2.95
2018-12-11T06:09:19.911Z,2.50
2018-12-11T06:11:48.759Z,1.98
2018-12-11T06:14:18.272Z,2.70
2018-12-11T06:16:53.081Z,1.67
2018-12-11T06:19:21.705Z,2.27
2018-12-11T06:21:50.403Z,1.75
2018-12-11T06:24:25.251Z,1.60
2018-12-11T06:26:54.751Z,1.95
2018-12-11T06:29:29.610Z,1.20
2018-12-11T06:31:58.275Z,2.05
2018-12-11T06:34:26.992Z,2.12
2018-12-11T06:37:01.795Z,1.80
2018-12-11T06:39:30.609Z,2.87
2018-12-11T06:42:05.668Z,1.30
2018-12-11T06:44:34.468Z,1.65
2018-12-11T06:47:03.238Z,1.92
2018-12-11T06:49:31.931Z,2.20
2018-12-11T06:52:00.720Z,2.27
2018-12-11T06:54:29.472Z,2.10
2018-12-11T06:57:01.972Z,2.50
2018-12-11T06:59:30.671Z,2.17
2018-12-11T07:01:59.361Z,1.80
2018-12-11T07:04:34.395Z,2.98
2018-12-11T07:07:09.220Z,2.25
2018-12-11T07:09:39.867Z,2.55
2018-12-11T07:12:14.728Z,2.55
2018-12-11T07:14:43.434Z,3.20
2018-12-11T07:17:18.242Z,2.60
2018-12-11T07:19:53.311Z,2.67
2018-12-11T07:22:22.819Z,2.77
2018-12-11T07:24:58.820Z,2.20
2018-12-11T07:27:33.775Z,2.40
2018-12-11T07:30:02.545Z,2.45
2018-12-11T07:32:31.238Z,3.17
2018-12-11T07:35:06.332Z,2.80
2018-12-11T07:37:41.179Z,2.72
2018-12-11T07:40:10.068Z,1.92
2018-12-11T07:42:44.829Z,3.12
2018-12-11T07:45:13.568Z,2.33
2018-12-11T07:47:42.264Z,2.87
2018-12-11T07:50:11.063Z,3.50
2018-12-11T07:52:39.775Z,2.50
2018-12-11T07:55:14.808Z,4.55
2018-12-11T07:57:43.508Z,2.87
2018-12-11T08:00:12.259Z,2.55
2018-12-11T08:02:40.979Z,1.90
2018-12-11T08:05:09.720Z,2.67
2018-12-11T08:07:38.492Z,3.12
2018-12-11T08:10:07.376Z,2.55
2018-12-11T08:12:36.113Z,3.35
2018-12-11T08:15:11.424Z,2.40
2018-12-11T08:17:40.127Z,3.20
2018-12-11T08:20:08.947Z,2.20
2018-12-11T08:22:37.680Z,2.20
2018-12-11T08:25:06.376Z,2.93
2018-12-11T08:27:41.307Z,2.37
2018-12-11T08:30:09.992Z,2.40
2018-12-11T08:32:45.019Z,2.45
2018-12-11T08:35:13.563Z,2.47
2018-12-11T08:37:42.185Z,2.13
2018-12-11T08:40:10.879Z,2.43
2018-12-11T08:42:39.348Z,2.50
2018-12-11T08:45:08.292Z,2.87
2018-12-11T08:47:37.068Z,2.65
2018-12-11T08:50:12.040Z,2.77
2018-12-11T08:52:40.728Z,3.13
2018-12-11T08:55:09.516Z,2.80
2018-12-11T08:57:44.306Z,2.35
2018-12-11T09:00:13.205Z,2.53
2018-12-11T09:02:48.096Z,2.60
2018-12-11T09:05:23.099Z,2.73
2018-12-11T09:07:57.881Z,2.40
2018-12-11T09:10:26.588Z,3.20
2018-12-11T09:13:01.458Z,2.60
2018-12-11T09:15:36.374Z,2.25
2018-12-11T09:18:05.063Z,2.47
2018-12-11T09:20:33.774Z,3.07
2018-12-11T09:23:02.508Z,2.95
2018-12-11T09:25:31.307Z,2.67
2018-12-11T09:28:00.004Z,3.93
2018-12-11T09:30:28.787Z,2.77
2018-12-11T09:32:57.545Z,2.73
2018-12-11T09:35:26.371Z,2.37
2018-12-11T09:37:55.166Z,2.47
2018-12-11T09:40:24.598Z,3.20
2018-12-11T09:42:53.620Z,2.13
2018-12-11T09:45:23.120Z,1.73
2018-12-11T09:47:51.864Z,2.57
2018-12-11T09:50:20.552Z,1.77
2018-12-11T09:52:49.264Z,2.03
2018-12-11T09:55:17.954Z,2.43
2018-12-11T09:57:52.920Z,1.90
2018-12-11T10:00:27.844Z,1.97
2018-12-11T10:02:57.384Z,2.33
2018-12-11T10:05:32.343Z,2.67
2018-12-11T10:08:01.507Z,2.53
2018-12-11T10:10:31.035Z,3.07
2018-12-11T10:12:59.524Z,2.23
2018-12-11T10:15:28.124Z,2.37
2018-12-11T10:17:56.823Z,2.80
2018-12-11T10:20:25.505Z,2.53
2018-12-11T10:22:54.459Z,2.50
2018-12-11T10:25:23.324Z,2.20
2018-12-11T10:27:52.039Z,1.70
2018-12-11T10:30:20.724Z,1.50
2018-12-11T10:32:52.350Z,1.80
2018-12-11T10:35:27.289Z,2.03
2018-12-11T10:37:55.991Z,1.93
2018-12-11T10:40:30.971Z,1.60
2018-12-11T10:42:59.709Z,2.70
2018-12-11T10:45:28.501Z,2.80
2018-12-11T10:48:03.776Z,2.07
2018-12-11T10:50:32.451Z,3.30
2018-12-11T10:53:01.966Z,3.40
2018-12-11T10:55:30.632Z,2.23
2018-12-11T10:57:59.232Z,2.83
2018-12-11T11:00:39.847Z,2.80
2018-12-11T11:03:08.692Z,2.40
2018-12-11T11:05:37.147Z,2.97
2018-12-11T11:08:05.755Z,2.73
2018-12-11T11:10:34.502Z,2.23
2018-12-11T11:13:03.262Z,2.70
2018-12-11T11:15:39.170Z,2.43
2018-12-11T11:18:14.272Z,3.13
2018-12-11T11:20:42.953Z,2.47
2018-12-11T11:23:17.964Z,2.37
2018-12-11T11:25:47.234Z,2.67
2018-12-11T11:28:22.221Z,3.20
2018-12-11T11:30:51.022Z,2.67
2018-12-11T11:33:25.606Z,2.10
2018-12-11T11:36:00.476Z,2.17
2018-12-11T11:38:35.270Z,2.23
2018-12-11T11:41:04.097Z,3.07
2018-12-11T11:43:32.835Z,1.77
2018-12-11T11:46:01.655Z,1.97
2018-12-11T11:48:30.339Z,2.30
2018-12-11T11:50:58.787Z,2.23
2018-12-11T11:53:27.379Z,1.10
2018-12-11T11:55:56.063Z,2.23
2018-12-11T11:58:24.740Z,2.73
2018-12-11T12:00:53.479Z,2.90
2018-12-11T12:03:28.335Z,3.07
2018-12-11T12:05:57.017Z,2.80
2018-12-11T12:08:25.708Z,2.43
2018-12-11T12:10:54.375Z,2.37
2018-12-11T12:13:22.927Z,2.83
2018-12-11T12:15:51.507Z,2.23
2018-12-11T12:18:20.972Z,2.13
2018-12-11T12:20:55.897Z,2.80
2018-12-11T12:23:24.583Z,3.20
2018-12-11T12:25:59.470Z,2.87
2018-12-11T12:28:34.331Z,2.57
2018-12-11T12:31:03.278Z,2.07
2018-12-11T12:33:38.134Z,2.20
2018-12-11T12:36:08.003Z,2.47
2018-12-11T12:38:36.672Z,2.37
2018-12-11T12:41:11.211Z,1.80
2018-12-11T12:43:39.595Z,2.07
2018-12-11T12:46:07.952Z,1.93
2018-12-11T12:48:36.558Z,2.40
2018-12-11T12:51:50.684Z,2.50
2018-12-11T12:54:25.640Z,2.10
2018-12-11T12:57:00.455Z,1.70
2018-12-11T12:59:31.247Z,2.03
2018-12-11T13:02:04.028Z,2.73
2018-12-11T13:04:32.929Z,2.97
2018-12-11T13:07:01.371Z,2.40
2018-12-11T13:09:29.757Z,2.60
2018-12-11T13:11:58.372Z,2.20
2018-12-11T13:14:27.114Z,1.80
2018-12-11T13:17:01.684Z,2.10
2018-12-11T13:19:30.106Z,2.47
2018-12-11T13:21:58.719Z,2.40
2018-12-11T13:24:33.592Z,2.10
2018-12-11T13:27:08.244Z,1.37
2018-12-11T13:29:38.023Z,2.83
2018-12-11T13:32:06.771Z,2.37
2018-12-11T13:34:35.239Z,2.10
2018-12-11T13:37:10.128Z,2.60
2018-12-11T13:39:38.900Z,2.37
2018-12-11T13:42:07.448Z,2.40
2018-12-11T13:44:36.047Z,1.40
2018-12-11T13:47:05.587Z,2.50
2018-12-11T13:49:40.071Z,2.40
2018-12-11T13:52:08.692Z,2.23
2018-12-11T13:54:37.390Z,1.97
2018-12-11T13:57:12.207Z,2.33
2018-12-11T13:59:46.974Z,2.27
2018-12-11T14:02:21.679Z,1.83
2018-12-11T14:04:50.266Z,2.00
2018-12-11T14:07:19.106Z,2.80
2018-12-11T14:09:53.811Z,2.20
2018-12-11T14:12:22.539Z,2.20
2018-12-11T14:14:51.311Z,2.23
2018-12-11T14:17:20.802Z,2.30
2018-12-11T14:19:55.737Z,2.43
2018-12-11T14:22:24.463Z,2.07
2018-12-11T14:24:59.603Z,2.60
2018-12-11T14:27:28.867Z,3.10
2018-12-11T14:29:57.463Z,2.70
2018-12-11T14:32:32.257Z,2.83
2018-12-11T14:35:07.141Z,2.50
2018-12-11T14:37:36.006Z,2.90
2018-12-11T14:40:05.181Z,2.93
2018-12-11T14:42:39.984Z,2.70
2018-12-11T14:45:08.923Z,2.90
2018-12-11T14:47:37.515Z,2.60
2018-12-11T14:50:07.792Z,2.50
2018-12-11T14:52:36.577Z,2.77
2018-12-11T14:55:05.799Z,3.77
2018-12-11T14:57:34.585Z,2.77
2018-12-11T15:00:11.179Z,3.30
2018-12-11T15:02:40.215Z,4.27
2018-12-11T15:05:09.262Z,5.43
2018-12-11T15:07:38.140Z,4.37
2018-12-11T15:10:09.488Z,3.60
2018-12-11T15:12:38.191Z,2.70
2018-12-11T15:15:08.466Z,2.47
2018-12-11T15:17:37.040Z,3.20
2018-12-11T15:20:12.218Z,2.55
2018-12-11T15:22:40.840Z,3.23
2018-12-11T15:25:10.317Z,3.10
2018-12-11T15:27:39.322Z,4.07
2018-12-11T15:30:08.931Z,2.30
2018-12-11T15:32:37.687Z,3.17
2018-12-11T15:35:12.575Z,4.27
2018-12-11T15:37:42.071Z,2.67
2018-12-11T15:40:10.860Z,2.25
2018-12-11T15:42:45.768Z,3.10
2018-12-11T15:45:21.205Z,2.93
2018-12-11T15:47:49.884Z,2.83
2018-12-11T15:50:18.640Z,2.33
2018-12-11T15:52:53.447Z,2.85
2018-12-11T15:55:22.280Z,3.15
2018-12-11T15:57:50.982Z,3.02
2018-12-11T16:00:19.824Z,4.22
2018-12-11T16:02:54.795Z,5.53
2018-12-11T16:05:23.364Z,4.45
2018-12-11T16:07:52.931Z,3.87
2018-12-11T16:10:27.531Z,5.37
2018-12-11T16:12:56.148Z,3.55
2018-12-11T16:15:31.232Z,3.98
2018-12-11T16:18:06.199Z,5.40
2018-12-11T16:20:37.848Z,4.28
2018-12-11T16:23:06.519Z,4.22
2018-12-11T16:25:35.307Z,4.22
2018-12-11T16:28:04.067Z,3.40
2018-12-11T16:30:39.035Z,2.77
2018-12-11T16:33:07.590Z,3.25
2018-12-11T16:35:36.971Z,3.58
2018-12-11T16:38:05.470Z,2.60
2018-12-11T16:40:40.170Z,3.55
2018-12-11T16:43:18.471Z,3.75
2018-12-11T16:45:54.304Z,3.87
2018-12-11T16:48:25.825Z,3.35
2018-12-11T16:51:01.685Z,3.75
2018-12-11T16:53:31.243Z,3.57
2018-12-11T16:56:06.035Z,3.35
2018-12-11T16:58:41.008Z,2.95
2018-12-11T17:01:09.470Z,4.70
2018-12-11T17:03:44.112Z,2.60
2018-12-11T17:06:12.709Z,4.05
2018-12-11T17:08:41.251Z,5.62
2018-12-11T17:11:16.224Z,3.70
2018-12-11T17:13:45.019Z,3.77
2018-12-11T17:16:13.531Z,4.22
2018-12-11T17:18:48.041Z,5.78
2018-12-11T17:21:16.736Z,3.77
2018-12-11T17:23:51.477Z,4.20
2018-12-11T17:26:26.269Z,10.03
2018-12-11T17:28:54.941Z,6.12
2018-12-11T17:31:23.515Z,6.58
2018-12-11T17:33:58.296Z,7.55
2018-12-11T17:36:27.023Z,6.37
2018-12-11T17:39:01.823Z,6.78
2018-12-11T17:41:36.551Z,6.70
2018-12-11T17:44:11.195Z,9.38
2018-12-11T17:46:40.739Z,10.53
2018-12-11T17:49:09.508Z,10.95
2018-12-11T17:51:38.006Z,14.60
2018-12-11T17:54:06.592Z,9.03
2018-12-11T17:56:41.400Z,6.10
2018-12-11T17:59:09.959Z,6.95
2018-12-11T18:01:40.803Z,6.47
2018-12-11T18:04:15.551Z,5.53
2018-12-11T18:06:50.405Z,4.72
2018-12-11T18:09:25.072Z,5.00
2018-12-11T18:11:53.527Z,4.83
2018-12-11T18:14:22.988Z,7.33
2018-12-11T18:16:51.487Z,5.72
2018-12-11T18:19:26.223Z,4.28
2018-12-11T18:21:54.704Z,6.58
2018-12-11T18:24:29.271Z,8.40
2018-12-11T18:26:57.959Z,5.45
2018-12-11T18:29:32.522Z,4.50
2018-12-11T18:32:02.825Z,4.60
2018-12-11T18:34:33.257Z,6.15
2018-12-11T18:37:08.960Z,7.50
2018-12-11T18:39:43.861Z,4.95
2018-12-11T18:42:12.795Z,5.37
2018-12-11T18:44:41.693Z,5.80
2018-12-11T18:47:10.399Z,4.83
2018-12-11T18:49:38.867Z,5.20
2018-12-11T18:52:07.743Z,4.20
2018-12-11T18:54:42.687Z,3.75
2018-12-11T18:57:12.251Z,5.00
2018-12-11T18:59:47.112Z,3.47
2018-12-11T19:02:22.130Z,3.50
2018-12-11T19:04:50.890Z,3.30
2018-12-11T19:07:19.432Z,3.00
2018-12-11T19:09:47.875Z,3.90
2018-12-11T19:12:17.571Z,3.35
2018-12-11T19:14:46.253Z,4.28
2018-12-11T19:17:21.188Z,4.03
2018-12-11T19:19:50.041Z,4.45
2018-12-11T19:22:19.276Z,5.75
2018-12-11T19:24:56.247Z,3.77
2018-12-11T19:27:31.052Z,5.25
2018-12-11T19:30:06.308Z,5.03
2018-12-11T19:32:35.811Z,5.90
2018-12-11T19:35:04.787Z,7.00
2018-12-11T19:37:33.247Z,5.35
2018-12-11T19:40:02.350Z,6.37
2018-12-11T19:42:31.115Z,5.92
2018-12-11T19:44:59.850Z,6.75
2018-12-11T19:47:28.557Z,7.62
2018-12-11T19:49:57.253Z,5.03
2018-12-11T19:52:25.995Z,6.65
2018-12-11T19:54:54.732Z,5.35
2018-12-11T19:57:23.506Z,5.90
2018-12-11T19:59:58.364Z,6.22
2018-12-11T20:02:32.887Z,4.67
2018-12-11T20:05:01.258Z,4.67
2018-12-11T20:07:29.945Z,3.47
2018-12-11T20:10:04.052Z,6.83
2018-12-11T20:12:32.744Z,4.85
2018-12-11T20:15:04.736Z,3.40
2018-12-11T20:17:38.354Z,4.17
2018-12-11T20:20:07.750Z,3.15
2018-12-11T20:22:42.564Z,4.05
2018-12-11T20:25:11.277Z,3.98
2018-12-11T20:27:46.205Z,4.75
2018-12-11T20:30:14.691Z,3.98
2018-12-11T20:32:43.293Z,3.45
2018-12-11T20:35:12.071Z,2.35
2018-12-11T20:37:46.918Z,3.40
2018-12-11T20:40:21.971Z,3.50
2018-12-11T20:42:56.971Z,3.22
2018-12-11T20:45:25.687Z,4.10
2018-12-11T20:48:00.251Z,4.85
2018-12-11T20:50:28.905Z,4.87
2018-12-11T20:53:03.840Z,5.28
2018-12-11T20:55:32.526Z,3.25
2018-12-11T20:58:01.267Z,4.22
2018-12-11T21:00:36.393Z,4.33
2018-12-11T21:03:05.159Z,3.58
2018-12-11T21:05:33.939Z,6.22
2018-12-11T21:08:03.541Z,4.33
2018-12-11T21:10:32.288Z,4.87
2018-12-11T21:13:01.778Z,3.72
2018-12-11T21:15:30.551Z,5.17
2018-12-11T21:18:05.370Z,4.78
2018-12-11T21:20:34.147Z,5.20
2018-12-11T21:23:09.059Z,4.87
2018-12-11T21:25:43.896Z,3.52
2018-12-11T21:28:12.676Z,4.78
2018-12-11T21:30:45.533Z,4.65
2018-12-11T21:33:14.345Z,8.15
2018-12-11T21:35:43.117Z,5.37
2018-12-11T21:38:12.735Z,4.03
2018-12-11T21:40:44.431Z,5.17
2018-12-11T21:43:13.164Z,4.80
2018-12-11T21:45:41.903Z,4.87
2018-12-11T21:48:10.637Z,5.55
2018-12-11T21:50:39.513Z,5.55
2018-12-11T21:53:14.373Z,5.20
2018-12-11T21:55:49.423Z,5.78
2018-12-11T21:58:18.209Z,5.10
2018-12-11T22:00:47.634Z,5.15
2018-12-11T22:03:16.329Z,4.42
2018-12-11T22:05:45.008Z,5.05
2018-12-11T22:08:13.476Z,4.53
2018-12-11T22:10:42.071Z,4.10
2018-12-11T22:13:10.799Z,4.90
2018-12-11T22:15:39.488Z,3.95
2018-12-11T22:18:08.043Z,4.22
2018-12-11T22:20:42.944Z,8.03
2018-12-11T22:23:17.501Z,7.00
2018-12-11T22:25:47.114Z,4.60
2018-12-11T22:28:15.859Z,5.08
2018-12-11T22:30:45.728Z,7.10
2018-12-11T22:33:20.663Z,4.20
2018-12-11T22:35:49.502Z,5.22
2018-12-11T22:38:18.188Z,4.15
2018-12-11T22:40:53.192Z,4.10
2018-12-11T22:43:28.128Z,5.97
2018-12-11T22:45:58.454Z,6.90
2018-12-11T22:48:27.309Z,6.92
2018-12-11T22:50:56.065Z,7.65
2018-12-11T22:53:30.799Z,5.33
2018-12-11T22:55:59.508Z,5.00
2018-12-11T22:58:28.219Z,3.37
2018-12-11T23:00:57.069Z,4.58
2018-12-11T23:03:25.822Z,3.80
2018-12-11T23:06:00.539Z,3.45
2018-12-11T23:08:29.292Z,4.22
2018-12-11T23:11:04.348Z,4.03
2018-12-11T23:13:33.135Z,3.95
2018-12-11T23:16:05.259Z,5.40
2018-12-11T23:18:33.578Z,6.00
2018-12-11T23:21:02.266Z,4.30
2018-12-11T23:23:37.318Z,3.75
2018-12-11T23:26:12.340Z,3.80
2018-12-11T23:28:40.852Z,8.88
2018-12-11T23:31:09.568Z,7.15
2018-12-11T23:33:40.995Z,7.45
2018-12-11T23:36:09.684Z,7.62
2018-12-11T23:38:44.509Z,5.67
2018-12-11T23:41:19.090Z,5.72
2018-12-11T23:43:47.693Z,4.58
2018-12-11T23:46:16.387Z,5.28
2018-12-11T23:48:51.280Z,4.70
2018-12-11T23:51:26.176Z,4.85
2018-12-11T23:54:01.033Z,5.97
2018-12-11T23:56:35.915Z,5.85
2018-12-11T23:59:04.772Z,5.87
